Česky Dansk Deutsch English Español Suomi Français Magyar Italiano Nederlands norsk Polski Português svenska Türkçe

 

Het Weer

Gizan (Saudi-Arabië)

01:00, 15 augustus 2016 (GMT)

NWNNE
WE
SWSSE
Home            
Gizan Sa'Ada / Sadah Abha Khamis Mushait Najran Sana'A Hodeidah Al-Hazm Marib Bisha Massawa Al Baha Taiz Mokha Assab Asmara Mokha Sharurah Wadi Al Dawasser Airport Makale Axum Agordat Ataq

Om een weerknop op uw website of weblog te plaatsen, copieer onderstaande code en plak die in uw pagina. In het eerste vakje staat HTML-code, in het tweede vakje UBB-code.


Add to Google

Details

Görüş mesafesi:Değerinden büyük 10000 m, 10 km, 32800 ft, 6.2 miles
Clouds:CAVOC
Sıcaklık:29°C, 84°F
Gefühlte Temperatur:33°C, 91°F
Dew-point:23°C, 73°F
Atmosferık basınç:1005 hPa, 753.8 mmHg, 29.68 inHg, 0.992 atm
Relativ humidity:70.1 %
METAR:OEGN 150100Z 00000KT CAVOK 29/23 Q1005 NOSIG

Snelkoppelingen

Actuele weersinformatie van de hele wereld. Voeg locaties toe met het plus (+) symbool. Deze snelkoppelingen kunnen worden toegevoegd aan Google.

Lid van de Technetium groep

website free tracking
StatCounter NetStat W3C Validator

14-04-2021 10:36:21
astro.technetium.be money.technetium.be phote.technetium.be tafeltennistafel.technetium.be www.ligfiets.net